createdAt,value
2018-06-16T00:00:44.546Z,1005.59
2018-06-16T00:01:50.055Z,1005.59
2018-06-16T00:02:55.580Z,1005.60
2018-06-16T00:04:01.088Z,1005.63
2018-06-16T00:05:06.612Z,1005.65
2018-06-16T00:06:12.124Z,1005.61
2018-06-16T00:07:17.641Z,1005.64
2018-06-16T00:08:23.163Z,1005.64
2018-06-16T00:09:28.690Z,1005.64
2018-06-16T00:10:34.204Z,1005.63
2018-06-16T00:11:39.711Z,1005.65
2018-06-16T00:12:45.232Z,1005.66
2018-06-16T00:13:50.749Z,1005.66
2018-06-16T00:14:56.259Z,1005.66
2018-06-16T00:16:01.781Z,1005.65
2018-06-16T00:17:07.293Z,1005.68
2018-06-16T00:18:12.811Z,1005.65
2018-06-16T00:19:18.330Z,1005.67
2018-06-16T00:20:23.845Z,1005.64
2018-06-16T00:21:29.371Z,1005.64
2018-06-16T00:22:34.893Z,1005.65
2018-06-16T00:23:40.396Z,1005.66
2018-06-16T00:24:45.908Z,1005.66
2018-06-16T00:25:51.430Z,1005.65
2018-06-16T00:26:56.949Z,1005.64
2018-06-16T00:28:02.463Z,1005.63
2018-06-16T00:29:07.994Z,1005.62
2018-06-16T00:30:13.501Z,1005.61
2018-06-16T00:31:19.020Z,1005.62
2018-06-16T00:32:24.544Z,1005.65
2018-06-16T00:33:30.054Z,1005.63
2018-06-16T00:34:35.569Z,1005.60
2018-06-16T00:35:41.093Z,1005.64
2018-06-16T00:36:46.598Z,1005.64
2018-06-16T00:37:52.114Z,1005.63
2018-06-16T00:38:57.635Z,1005.63
2018-06-16T00:40:03.155Z,1005.63
2018-06-16T00:41:08.690Z,1005.56
2018-06-16T00:42:14.186Z,1005.53
2018-06-16T00:43:19.700Z,1005.54
2018-06-16T00:44:25.217Z,1005.55
2018-06-16T00:45:30.738Z,1005.53
2018-06-16T00:46:36.259Z,1005.53
2018-06-16T00:47:41.766Z,1005.53
2018-06-16T00:48:47.300Z,1005.53
2018-06-16T00:49:52.803Z,1005.55
2018-06-16T00:50:58.321Z,1005.53
2018-06-16T00:52:03.838Z,1005.56
2018-06-16T00:53:09.358Z,1005.56
2018-06-16T00:54:14.885Z,1005.56
2018-06-16T00:55:20.406Z,1005.55
2018-06-16T00:56:25.908Z,1005.53
2018-06-16T00:57:31.424Z,1005.50
2018-06-16T00:58:36.939Z,1005.54
2018-06-16T00:59:42.454Z,1005.55
2018-06-16T01:00:47.975Z,1005.54
2018-06-16T01:01:53.488Z,1005.56
2018-06-16T01:02:59.012Z,1005.55
2018-06-16T01:04:04.531Z,1005.55
2018-06-16T01:05:10.041Z,1005.50
2018-06-16T01:06:15.568Z,1005.52
2018-06-16T01:07:21.071Z,1005.54
2018-06-16T01:08:26.594Z,1005.53
2018-06-16T01:09:32.106Z,1005.53
2018-06-16T01:10:37.635Z,1005.45
2018-06-16T01:11:43.148Z,1005.47
2018-06-16T01:12:48.659Z,1005.48
2018-06-16T01:13:54.194Z,1005.42
2018-06-16T01:14:59.710Z,1005.48
2018-06-16T01:16:05.217Z,1005.50
2018-06-16T01:17:10.740Z,1005.50
2018-06-16T01:18:16.238Z,1005.48
2018-06-16T01:19:21.760Z,1005.54
2018-06-16T01:20:27.272Z,1005.53
2018-06-16T01:21:32.801Z,1005.56
2018-06-16T01:22:38.317Z,1005.54
2018-06-16T01:23:43.822Z,1005.54
2018-06-16T01:24:49.341Z,1005.49
2018-06-16T01:25:54.865Z,1005.48
2018-06-16T01:27:00.380Z,1005.50
2018-06-16T01:28:05.889Z,1005.46
2018-06-16T01:29:11.419Z,1005.48
2018-06-16T01:30:16.936Z,1005.47
2018-06-16T01:31:22.440Z,1005.46
2018-06-16T01:32:27.956Z,1005.50
2018-06-16T01:33:33.473Z,1005.50
2018-06-16T01:34:38.994Z,1005.50
2018-06-16T01:35:44.510Z,1005.51
2018-06-16T01:36:50.035Z,1005.51
2018-06-16T01:37:55.549Z,1005.49
2018-06-16T01:39:01.060Z,1005.50
2018-06-16T01:40:06.580Z,1005.48
2018-06-16T01:41:12.090Z,1005.48
2018-06-16T01:42:17.611Z,1005.47
2018-06-16T01:43:23.256Z,1005.48
2018-06-16T01:44:28.643Z,1005.47
2018-06-16T01:45:34.153Z,1005.50
2018-06-16T01:46:39.748Z,1005.50
2018-06-16T01:47:45.187Z,1005.48
2018-06-16T01:48:50.706Z,1005.52
2018-06-16T01:49:56.220Z,1005.54
2018-06-16T01:51:01.751Z,1005.50
2018-06-16T01:52:07.265Z,1005.52
2018-06-16T01:53:12.770Z,1005.52
2018-06-16T01:54:18.289Z,1005.49
2018-06-16T01:55:23.807Z,1005.50
2018-06-16T01:56:29.319Z,1005.51
2018-06-16T01:57:34.851Z,1005.49
2018-06-16T01:58:40.355Z,1005.49
2018-06-16T01:59:45.870Z,1005.46
2018-06-16T02:00:51.391Z,1005.45
2018-06-16T02:01:56.901Z,1005.51
2018-06-16T02:03:02.421Z,1005.50
2018-06-16T02:04:07.947Z,1005.49
2018-06-16T02:05:13.450Z,1005.48
2018-06-16T02:06:18.970Z,1005.49
2018-06-16T02:07:24.481Z,1005.48
2018-06-16T02:08:30.002Z,1005.47
2018-06-16T02:09:35.515Z,1005.49
2018-06-16T02:10:41.038Z,1005.42
2018-06-16T02:11:46.558Z,1005.47
2018-06-16T02:12:52.061Z,1005.49
2018-06-16T02:13:57.585Z,1005.47
2018-06-16T02:15:03.094Z,1005.48
2018-06-16T02:16:08.612Z,1005.44
2018-06-16T02:17:14.125Z,1005.44
2018-06-16T02:18:19.649Z,1005.45
2018-06-16T02:19:25.157Z,1005.45
2018-06-16T02:20:30.680Z,1005.45
2018-06-16T02:21:36.285Z,1005.43
2018-06-16T02:22:41.713Z,1005.40
2018-06-16T02:23:47.240Z,1005.42
2018-06-16T02:24:52.766Z,1005.42
2018-06-16T02:25:58.260Z,1005.43
2018-06-16T02:27:03.775Z,1005.41
2018-06-16T02:28:09.291Z,1005.44
2018-06-16T02:29:14.804Z,1005.44
2018-06-16T02:30:20.328Z,1005.44
2018-06-16T02:31:25.842Z,1005.46
2018-06-16T02:32:31.356Z,1005.46
2018-06-16T02:33:36.866Z,1005.43
2018-06-16T02:34:42.384Z,1005.48
2018-06-16T02:35:47.901Z,1005.46
2018-06-16T02:36:53.422Z,1005.46
2018-06-16T02:37:58.930Z,1005.48
2018-06-16T02:39:04.456Z,1005.47
2018-06-16T02:40:09.965Z,1005.46
2018-06-16T02:41:15.477Z,1005.46
2018-06-16T02:42:21.000Z,1005.47
2018-06-16T02:43:26.514Z,1005.46
2018-06-16T02:44:32.028Z,1005.45
2018-06-16T02:45:37.553Z,1005.44
2018-06-16T02:46:43.062Z,1005.48
2018-06-16T02:47:48.575Z,1005.45
2018-06-16T02:48:54.098Z,1005.49
2018-06-16T02:49:59.610Z,1005.44
2018-06-16T02:51:05.130Z,1005.41
2018-06-16T02:52:10.646Z,1005.39
2018-06-16T02:53:16.170Z,1005.39
2018-06-16T02:54:21.672Z,1005.37
2018-06-16T02:55:27.191Z,1005.35
2018-06-16T02:56:32.822Z,1005.29
2018-06-16T02:57:38.225Z,1005.33
2018-06-16T02:58:43.735Z,1005.30
2018-06-16T02:59:49.307Z,1005.30
2018-06-16T03:00:54.774Z,1005.32
2018-06-16T03:02:00.285Z,1005.31
2018-06-16T03:03:05.798Z,1005.32
2018-06-16T03:04:11.321Z,1005.35
2018-06-16T03:05:16.835Z,1005.35
2018-06-16T03:06:22.350Z,1005.33
2018-06-16T03:07:27.869Z,1005.31
2018-06-16T03:08:33.381Z,1005.33
2018-06-16T03:09:38.897Z,1005.34
2018-06-16T03:10:44.415Z,1005.30
2018-06-16T03:11:49.927Z,1005.34
2018-06-16T03:12:55.445Z,1005.35
2018-06-16T03:14:00.960Z,1005.33
2018-06-16T03:15:06.507Z,1005.31
2018-06-16T03:16:12.000Z,1005.28
2018-06-16T03:17:17.508Z,1005.28
2018-06-16T03:18:23.023Z,1005.26
2018-06-16T03:19:28.537Z,1005.27
2018-06-16T03:20:34.060Z,1005.25
2018-06-16T03:21:39.570Z,1005.29
2018-06-16T03:22:45.092Z,1005.28
2018-06-16T03:23:50.600Z,1005.31
2018-06-16T03:24:56.118Z,1005.28
2018-06-16T03:26:01.637Z,1005.30
2018-06-16T03:27:07.151Z,1005.28
2018-06-16T03:28:12.668Z,1005.29
2018-06-16T03:29:18.212Z,1005.32
2018-06-16T03:30:23.705Z,1005.34
2018-06-16T03:31:29.212Z,1005.29
2018-06-16T03:32:34.731Z,1005.26
2018-06-16T03:33:40.245Z,1005.28
2018-06-16T03:34:45.822Z,1005.28
2018-06-16T03:35:51.281Z,1005.29
2018-06-16T03:36:56.789Z,1005.28
2018-06-16T03:38:02.308Z,1005.32
2018-06-16T03:39:07.820Z,1005.28
2018-06-16T03:40:13.363Z,1005.28
2018-06-16T03:41:18.858Z,1005.27
2018-06-16T03:42:24.366Z,1005.30
2018-06-16T03:43:29.887Z,1005.29
2018-06-16T03:44:35.400Z,1005.28
2018-06-16T03:45:40.915Z,1005.26
2018-06-16T03:46:46.449Z,1005.24
2018-06-16T03:47:51.954Z,1005.24
2018-06-16T03:48:57.466Z,1005.23
2018-06-16T03:50:02.984Z,1005.22
2018-06-16T03:51:08.495Z,1005.25
2018-06-16T03:52:14.014Z,1005.26
2018-06-16T03:53:19.532Z,1005.27
2018-06-16T03:54:25.043Z,1005.27
2018-06-16T03:55:30.561Z,1005.24
2018-06-16T03:56:36.075Z,1005.23
2018-06-16T03:57:41.588Z,1005.24
2018-06-16T03:58:47.111Z,1005.24
2018-06-16T03:59:52.629Z,1005.24
2018-06-16T04:00:58.142Z,1005.24
2018-06-16T04:02:03.652Z,1005.23
2018-06-16T04:03:09.171Z,1005.25
2018-06-16T04:04:14.685Z,1005.24
2018-06-16T04:05:20.199Z,1005.25
2018-06-16T04:06:25.724Z,1005.26
2018-06-16T04:07:31.235Z,1005.25
2018-06-16T04:08:36.751Z,1005.25
2018-06-16T04:09:42.321Z,1005.28
2018-06-16T04:10:47.778Z,1005.25
2018-06-16T04:11:53.389Z,1005.23
2018-06-16T04:12:58.902Z,1005.28
2018-06-16T04:14:04.329Z,1005.25
2018-06-16T04:15:09.847Z,1005.28
2018-06-16T04:16:15.372Z,1005.26
2018-06-16T04:17:20.873Z,1005.26
2018-06-16T04:18:26.395Z,1005.27
2018-06-16T04:19:31.923Z,1005.29
2018-06-16T04:20:37.424Z,1005.27
2018-06-16T04:21:42.942Z,1005.25
2018-06-16T04:22:48.450Z,1005.27
2018-06-16T04:23:53.975Z,1005.27
2018-06-16T04:24:59.480Z,1005.28
2018-06-16T04:26:05.001Z,1005.27
2018-06-16T04:27:10.516Z,1005.27
2018-06-16T04:28:16.029Z,1005.29
2018-06-16T04:29:21.549Z,1005.28
2018-06-16T04:30:27.061Z,1005.27
2018-06-16T04:31:32.578Z,1005.27
2018-06-16T04:32:38.090Z,1005.25
2018-06-16T04:33:43.605Z,1005.22
2018-06-16T04:34:49.184Z,1005.27
2018-06-16T04:35:54.640Z,1005.28
2018-06-16T04:37:00.168Z,1005.26
2018-06-16T04:38:05.678Z,1005.22
2018-06-16T04:39:11.187Z,1005.27
2018-06-16T04:40:16.718Z,1005.28
2018-06-16T04:41:22.217Z,1005.30
2018-06-16T04:42:27.736Z,1005.29
2018-06-16T04:43:33.251Z,1005.32
2018-06-16T04:44:38.768Z,1005.30
2018-06-16T04:45:44.394Z,1005.29
2018-06-16T04:46:49.802Z,1005.29
2018-06-16T04:47:55.351Z,1005.30
2018-06-16T04:49:00.832Z,1005.31
2018-06-16T04:50:06.409Z,1005.34
2018-06-16T04:51:11.861Z,1005.35
2018-06-16T04:52:17.378Z,1005.33
2018-06-16T04:53:22.924Z,1005.35
2018-06-16T04:54:28.411Z,1005.35
2018-06-16T04:55:33.923Z,1005.38
2018-06-16T04:56:39.443Z,1005.37
2018-06-16T04:57:44.963Z,1005.37
2018-06-16T04:58:50.483Z,1005.38
2018-06-16T04:59:55.991Z,1005.37
2018-06-16T05:01:01.520Z,1005.39
2018-06-16T05:02:07.024Z,1005.38
2018-06-16T05:03:12.540Z,1005.36
2018-06-16T05:04:18.055Z,1005.38
2018-06-16T05:05:23.568Z,1005.34
2018-06-16T05:06:29.095Z,1005.38
2018-06-16T05:07:34.604Z,1005.32
2018-06-16T05:08:40.215Z,1005.33
2018-06-16T05:09:45.636Z,1005.28
2018-06-16T05:10:51.153Z,1005.30
2018-06-16T05:11:56.665Z,1005.29
2018-06-16T05:13:02.184Z,1005.26
2018-06-16T05:14:07.701Z,1005.24
2018-06-16T05:15:13.222Z,1005.23
2018-06-16T05:16:18.746Z,1005.28
2018-06-16T05:17:24.254Z,1005.27
2018-06-16T05:18:29.769Z,1005.24
2018-06-16T05:19:35.280Z,1005.22
2018-06-16T05:20:40.803Z,1005.20
2018-06-16T05:21:46.319Z,1005.25
2018-06-16T05:22:51.830Z,1005.23
2018-06-16T05:23:57.361Z,1005.23
2018-06-16T05:25:02.862Z,1005.22
2018-06-16T05:26:08.387Z,1005.23
2018-06-16T05:27:13.902Z,1005.18
2018-06-16T05:28:19.434Z,1005.20
2018-06-16T05:29:24.928Z,1005.21
2018-06-16T05:30:30.450Z,1005.21
2018-06-16T05:31:35.963Z,1005.21
2018-06-16T05:32:41.483Z,1005.21
2018-06-16T05:33:46.998Z,1005.21
2018-06-16T05:34:52.510Z,1005.22
2018-06-16T05:35:58.033Z,1005.20
2018-06-16T05:37:03.545Z,1005.18
2018-06-16T05:38:09.061Z,1005.21
2018-06-16T05:39:14.577Z,1005.20
2018-06-16T05:40:20.098Z,1005.19
2018-06-16T05:41:25.610Z,1005.23
2018-06-16T05:42:31.135Z,1005.25
2018-06-16T05:43:36.649Z,1005.21
2018-06-16T05:44:42.169Z,1005.22
2018-06-16T05:45:47.680Z,1005.21
2018-06-16T05:46:53.196Z,1005.23
2018-06-16T05:47:58.714Z,1005.23
2018-06-16T05:49:04.236Z,1005.25
2018-06-16T05:50:09.747Z,1005.22
2018-06-16T05:51:15.263Z,1005.23
2018-06-16T05:52:20.778Z,1005.24
2018-06-16T05:53:26.298Z,1005.22
2018-06-16T05:54:31.811Z,1005.24
2018-06-16T05:55:37.334Z,1005.29
2018-06-16T05:56:42.850Z,1005.28
2018-06-16T05:57:48.375Z,1005.28
2018-06-16T05:58:53.877Z,1005.29
2018-06-16T05:59:59.399Z,1005.23
2018-06-16T06:01:04.917Z,1005.26
2018-06-16T06:02:10.446Z,1005.24
2018-06-16T06:03:15.950Z,1005.26
2018-06-16T06:04:21.479Z,1005.23
2018-06-16T06:05:26.992Z,1005.24
2018-06-16T06:06:32.501Z,1005.26
2018-06-16T06:07:38.018Z,1005.24
2018-06-16T06:08:43.537Z,1005.21
2018-06-16T06:09:49.055Z,1005.21
2018-06-16T06:10:54.577Z,1005.21
2018-06-16T06:12:00.092Z,1005.24
2018-06-16T06:13:05.599Z,1005.24
2018-06-16T06:14:11.119Z,1005.21
2018-06-16T06:15:16.636Z,1005.24
2018-06-16T06:16:22.167Z,1005.22
2018-06-16T06:17:27.672Z,1005.24
2018-06-16T06:18:33.197Z,1005.26
2018-06-16T06:19:38.713Z,1005.28
2018-06-16T06:20:44.229Z,1005.26
2018-06-16T06:21:49.742Z,1005.30
2018-06-16T06:22:55.268Z,1005.32
2018-06-16T06:24:00.774Z,1005.34
2018-06-16T06:25:06.300Z,1005.35
2018-06-16T06:26:11.818Z,1005.34
2018-06-16T06:27:17.327Z,1005.33
2018-06-16T06:28:22.846Z,1005.33
2018-06-16T06:29:28.401Z,1005.35
2018-06-16T06:30:33.894Z,1005.34
2018-06-16T06:31:39.402Z,1005.36
2018-06-16T06:32:44.918Z,1005.37
2018-06-16T06:33:50.457Z,1005.36
2018-06-16T06:34:55.957Z,1005.40
2018-06-16T06:36:01.474Z,1005.42
2018-06-16T06:37:07.011Z,1005.43
2018-06-16T06:38:12.504Z,1005.39
2018-06-16T06:39:18.024Z,1005.41
2018-06-16T06:40:23.539Z,1005.41
2018-06-16T06:41:29.060Z,1005.43
2018-06-16T06:42:34.590Z,1005.38
2018-06-16T06:43:40.093Z,1005.41
2018-06-16T06:44:45.619Z,1005.44
2018-06-16T06:45:51.132Z,1005.44
2018-06-16T06:46:56.645Z,1005.40
2018-06-16T06:48:02.183Z,1005.43
2018-06-16T06:49:07.681Z,1005.43
2018-06-16T06:50:13.199Z,1005.44
2018-06-16T06:51:18.719Z,1005.43
2018-06-16T06:52:24.256Z,1005.41
2018-06-16T06:53:29.762Z,1005.45
2018-06-16T06:54:35.280Z,1005.50
2018-06-16T06:55:40.807Z,1005.54
2018-06-16T06:56:46.309Z,1005.53
2018-06-16T06:57:51.837Z,1005.49
2018-06-16T06:58:57.350Z,1005.53
2018-06-16T07:00:02.860Z,1005.55
2018-06-16T07:01:08.382Z,1005.55
2018-06-16T07:02:13.913Z,1005.60
2018-06-16T07:03:19.417Z,1005.54
2018-06-16T07:04:24.936Z,1005.52
2018-06-16T07:05:30.449Z,1005.55
2018-06-16T07:06:35.971Z,1005.53
2018-06-16T07:07:41.492Z,1005.55
2018-06-16T07:08:47.011Z,1005.51
2018-06-16T07:09:52.532Z,1005.50
2018-06-16T07:10:58.163Z,1005.52
2018-06-16T07:12:03.560Z,1005.52
2018-06-16T07:13:09.081Z,1005.50
2018-06-16T07:14:14.597Z,1005.50
2018-06-16T07:15:20.117Z,1005.53
2018-06-16T07:16:25.637Z,1005.50
2018-06-16T07:17:31.152Z,1005.49
2018-06-16T07:18:36.673Z,1005.50
2018-06-16T07:19:42.190Z,1005.49
2018-06-16T07:20:47.707Z,1005.47
2018-06-16T07:21:53.229Z,1005.49
2018-06-16T07:22:58.750Z,1005.52
2018-06-16T07:24:04.265Z,1005.50
2018-06-16T07:25:09.781Z,1005.48
2018-06-16T07:26:15.311Z,1005.53
2018-06-16T07:27:20.821Z,1005.55
2018-06-16T07:28:26.349Z,1005.52
2018-06-16T07:29:31.860Z,1005.53
2018-06-16T07:30:37.393Z,1005.56
2018-06-16T07:31:42.894Z,1005.56
2018-06-16T07:32:48.413Z,1005.54
2018-06-16T07:33:53.931Z,1005.51
2018-06-16T07:34:59.447Z,1005.54
2018-06-16T07:36:05.027Z,1005.51
2018-06-16T07:37:10.485Z,1005.56
2018-06-16T07:38:16.005Z,1005.53
2018-06-16T07:39:21.525Z,1005.53
2018-06-16T07:40:27.040Z,1005.56
2018-06-16T07:41:32.605Z,1005.62
2018-06-16T07:42:38.081Z,1005.63
2018-06-16T07:43:43.597Z,1005.63
2018-06-16T07:44:49.112Z,1005.61
2018-06-16T07:45:54.639Z,1005.61
2018-06-16T07:47:00.157Z,1005.59
2018-06-16T07:48:05.672Z,1005.55
2018-06-16T07:49:11.203Z,1005.59
2018-06-16T07:50:16.705Z,1005.56
2018-06-16T07:51:22.230Z,1005.60
2018-06-16T07:52:27.746Z,1005.58
2018-06-16T07:53:33.278Z,1005.56
2018-06-16T07:54:38.782Z,1005.60
2018-06-16T07:55:44.306Z,1005.58
2018-06-16T07:56:49.885Z,1005.55
2018-06-16T07:57:55.342Z,1005.59
2018-06-16T07:59:00.857Z,1005.51
2018-06-16T08:00:06.383Z,1005.58
2018-06-16T08:01:11.900Z,1005.56
2018-06-16T08:02:17.428Z,1005.54
2018-06-16T08:03:22.930Z,1005.56
2018-06-16T08:04:28.469Z,1005.57
2018-06-16T08:05:33.976Z,1005.58
2018-06-16T08:06:39.495Z,1005.57
2018-06-16T08:07:45.012Z,1005.57
2018-06-16T08:08:50.533Z,1005.56
2018-06-16T08:09:56.045Z,1005.56
2018-06-16T08:11:01.574Z,1005.51
2018-06-16T08:12:07.084Z,1005.54
2018-06-16T08:13:12.599Z,1005.52
2018-06-16T08:14:18.121Z,1005.52
2018-06-16T08:15:23.639Z,1005.54
2018-06-16T08:16:29.161Z,1005.51
2018-06-16T08:17:34.678Z,1005.54
2018-06-16T08:18:40.213Z,1005.55
2018-06-16T08:19:45.718Z,1005.53
2018-06-16T08:20:51.248Z,1005.52
2018-06-16T08:21:56.761Z,1005.54
2018-06-16T08:23:02.275Z,1005.50
2018-06-16T08:24:07.795Z,1005.54
2018-06-16T08:25:13.312Z,1005.50
2018-06-16T08:26:18.835Z,1005.50
2018-06-16T08:27:24.354Z,1005.53
2018-06-16T08:28:29.875Z,1005.54
2018-06-16T08:29:35.394Z,1005.51
2018-06-16T08:30:40.916Z,1005.52
2018-06-16T08:31:46.447Z,1005.54
2018-06-16T08:32:51.945Z,1005.52
2018-06-16T08:33:57.490Z,1005.51
2018-06-16T08:35:02.998Z,1005.57
2018-06-16T08:36:08.515Z,1005.55
2018-06-16T08:37:14.028Z,1005.53
2018-06-16T08:38:19.553Z,1005.58
2018-06-16T08:39:25.068Z,1005.56
2018-06-16T08:40:30.583Z,1005.55
2018-06-16T08:41:36.102Z,1005.55
2018-06-16T08:42:41.623Z,1005.55
2018-06-16T08:43:47.146Z,1005.57
2018-06-16T08:44:52.662Z,1005.56
2018-06-16T08:45:58.205Z,1005.58
2018-06-16T08:47:03.707Z,1005.62
2018-06-16T08:48:09.218Z,1005.51
2018-06-16T08:49:14.741Z,1005.54
2018-06-16T08:50:20.262Z,1005.53
2018-06-16T08:51:25.824Z,1005.52
2018-06-16T08:52:31.302Z,1005.56
2018-06-16T08:53:36.815Z,1005.57
2018-06-16T08:54:42.346Z,1005.57
2018-06-16T08:55:47.861Z,1005.56
2018-06-16T08:56:53.379Z,1005.56
2018-06-16T08:57:58.902Z,1005.56
2018-06-16T08:59:04.421Z,1005.51
2018-06-16T09:00:09.940Z,1005.57
2018-06-16T09:01:15.465Z,1005.53
2018-06-16T09:02:20.986Z,1005.59
2018-06-16T09:03:26.502Z,1005.55
2018-06-16T09:04:32.022Z,1005.57
2018-06-16T09:05:37.540Z,1005.62
2018-06-16T09:06:43.054Z,1005.65
2018-06-16T09:07:48.583Z,1005.58
2018-06-16T09:08:54.097Z,1005.61
2018-06-16T09:09:59.621Z,1005.62
2018-06-16T09:11:05.153Z,1005.61
2018-06-16T09:12:10.655Z,1005.65
2018-06-16T09:13:16.178Z,1005.59
2018-06-16T09:14:21.708Z,1005.60
2018-06-16T09:15:27.214Z,1005.62
2018-06-16T09:16:32.749Z,1005.64
2018-06-16T09:17:38.268Z,1005.60
2018-06-16T09:18:43.784Z,1005.61
2018-06-16T09:19:49.297Z,1005.61
2018-06-16T09:20:54.834Z,1005.63
2018-06-16T09:22:00.397Z,1005.65
2018-06-16T09:23:05.855Z,1005.67
2018-06-16T09:24:11.379Z,1005.67
2018-06-16T09:25:16.912Z,1005.67
2018-06-16T09:26:22.429Z,1005.70
2018-06-16T09:27:27.931Z,1005.71
2018-06-16T09:28:33.456Z,1005.68
2018-06-16T09:29:38.970Z,1005.73
2018-06-16T09:30:44.607Z,1005.69
2018-06-16T09:31:50.054Z,1005.62
2018-06-16T09:32:55.532Z,1005.66
2018-06-16T09:34:01.062Z,1005.67
2018-06-16T09:35:06.574Z,1005.68
2018-06-16T09:36:12.123Z,1005.66
2018-06-16T09:37:17.610Z,1005.66
2018-06-16T09:38:23.132Z,1005.64
2018-06-16T09:39:28.648Z,1005.65
2018-06-16T09:40:34.178Z,1005.66
2018-06-16T09:41:39.702Z,1005.64
2018-06-16T09:42:45.223Z,1005.62
2018-06-16T09:43:50.738Z,1005.62
2018-06-16T09:44:56.264Z,1005.62
2018-06-16T09:46:01.770Z,1005.61
2018-06-16T09:47:07.295Z,1005.63
2018-06-16T09:48:12.829Z,1005.65
2018-06-16T09:49:18.470Z,1005.63
2018-06-16T09:50:23.856Z,1005.65
2018-06-16T09:51:29.387Z,1005.64
2018-06-16T09:52:34.899Z,1005.60
2018-06-16T09:53:40.417Z,1005.60
2018-06-16T09:54:45.976Z,1005.59
2018-06-16T09:55:51.488Z,1005.61
2018-06-16T09:56:56.974Z,1005.63
2018-06-16T09:58:02.593Z,1005.62
2018-06-16T09:59:08.020Z,1005.66
2018-06-16T10:00:13.535Z,1005.64
2018-06-16T10:01:19.053Z,1005.64
2018-06-16T10:02:24.582Z,1005.65
2018-06-16T10:03:30.104Z,1005.66
2018-06-16T10:04:35.646Z,1005.68
2018-06-16T10:05:41.135Z,1005.60
2018-06-16T10:06:46.666Z,1005.65
2018-06-16T10:07:52.172Z,1005.59
2018-06-16T10:08:58.227Z,1005.60
2018-06-16T10:10:03.776Z,1005.61
2018-06-16T10:11:08.958Z,1005.59
2018-06-16T10:12:16.050Z,1005.61
2018-06-16T10:13:20.327Z,1005.58
2018-06-16T10:14:25.320Z,1005.55
2018-06-16T10:15:30.818Z,1005.59
2018-06-16T10:16:36.330Z,1005.52
2018-06-16T10:17:41.862Z,1005.55
2018-06-16T10:18:50.928Z,1005.60
2018-06-16T10:19:53.509Z,1005.59
2018-06-16T10:20:59.224Z,1005.55
2018-06-16T10:22:04.219Z,1005.55
2018-06-16T10:23:09.454Z,1005.59
2018-06-16T10:24:15.000Z,1005.53
2018-06-16T10:25:20.492Z,1005.50
2018-06-16T10:26:26.024Z,1005.54
2018-06-16T10:27:31.601Z,1005.56
2018-06-16T10:28:37.051Z,1005.56
2018-06-16T10:29:42.572Z,1005.56
2018-06-16T10:30:48.107Z,1005.51
2018-06-16T10:31:53.623Z,1005.47
2018-06-16T10:32:59.141Z,1005.48
2018-06-16T10:34:04.671Z,1005.47
2018-06-16T10:35:10.203Z,1005.43
2018-06-16T10:36:15.743Z,1005.46
2018-06-16T10:37:21.211Z,1005.45
2018-06-16T10:38:26.757Z,1005.43
2018-06-16T10:39:32.260Z,1005.44
2018-06-16T10:41:43.502Z,1005.40
2018-06-16T10:42:49.068Z,1005.39
2018-06-16T10:43:54.567Z,1005.41
2018-06-16T10:45:00.075Z,1005.38
2018-06-16T10:46:05.599Z,1005.43
2018-06-16T10:47:11.126Z,1005.44
2018-06-16T10:48:17.656Z,1005.40
2018-06-16T10:49:22.134Z,1005.39
2018-06-16T10:50:28.320Z,1005.40
2018-06-16T10:51:33.900Z,1005.36
2018-06-16T10:52:38.671Z,1005.36
2018-06-16T10:53:44.218Z,1005.36
2018-06-16T10:54:50.779Z,1005.35
2018-06-16T10:55:55.285Z,1005.34
2018-06-16T10:57:00.776Z,1005.32
2018-06-16T10:58:06.285Z,1005.30
2018-06-16T10:59:11.803Z,1005.34
2018-06-16T11:00:17.348Z,1005.29
2018-06-16T11:01:23.884Z,1005.31
2018-06-16T11:02:28.972Z,1005.31
2018-06-16T11:03:34.442Z,1005.28
2018-06-16T11:04:39.429Z,1005.28
2018-06-16T11:05:44.956Z,1005.36
2018-06-16T11:06:50.497Z,1005.33
2018-06-16T11:07:57.969Z,1005.39
2018-06-16T11:09:01.553Z,1005.38
2018-06-16T11:10:07.055Z,1005.34
2018-06-16T11:11:12.550Z,1005.36
2018-06-16T11:12:18.061Z,1005.35
2018-06-16T11:13:24.478Z,1005.34
2018-06-16T11:14:30.158Z,1005.36
2018-06-16T11:15:34.654Z,1005.33
2018-06-16T11:16:40.182Z,1005.32
2018-06-16T11:17:45.709Z,1005.34
2018-06-16T11:18:51.182Z,1005.30
2018-06-16T11:19:56.715Z,1005.27
2018-06-16T11:21:03.352Z,1005.31
2018-06-16T11:22:07.762Z,1005.30
2018-06-16T11:23:14.001Z,1005.32
2018-06-16T11:24:18.796Z,1005.26
2018-06-16T11:25:24.338Z,1005.22
2018-06-16T11:26:29.826Z,1005.25
2018-06-16T11:27:36.337Z,1005.20
2018-06-16T11:28:40.882Z,1005.24
2018-06-16T11:29:46.408Z,1005.24
2018-06-16T11:30:52.474Z,1005.21
2018-06-16T11:31:57.452Z,1005.20
2018-06-16T11:33:02.967Z,1005.15
2018-06-16T11:34:09.487Z,1005.19
2018-06-16T11:35:14.030Z,1005.18
2018-06-16T11:36:19.529Z,1005.12
2018-06-16T11:37:25.043Z,1005.09
2018-06-16T11:38:30.573Z,1005.09
2018-06-16T11:39:36.090Z,1005.09
2018-06-16T11:40:42.639Z,1005.08
2018-06-16T11:41:47.127Z,1005.06
2018-06-16T11:42:52.659Z,1005.10
2018-06-16T11:43:58.175Z,1005.09
2018-06-16T11:45:04.431Z,1004.99
2018-06-16T11:46:09.199Z,1005.04
2018-06-16T11:47:15.765Z,1005.03
2018-06-16T11:48:20.206Z,1005.07
2018-06-16T11:49:25.777Z,1004.99
2018-06-16T11:50:31.313Z,1005.07
2018-06-16T11:51:36.853Z,1005.04
2018-06-16T11:52:42.336Z,1005.05
2018-06-16T11:53:48.884Z,1005.04
2018-06-16T11:54:53.399Z,1005.03
2018-06-16T11:55:58.907Z,1005.08
2018-06-16T11:57:04.419Z,1005.06
2018-06-16T11:58:09.935Z,1005.05
2018-06-16T11:59:15.460Z,1005.05
2018-06-16T12:00:21.997Z,1005.07
2018-06-16T12:01:26.493Z,1005.03
2018-06-16T12:02:32.042Z,1005.05
2018-06-16T12:03:37.534Z,1005.01
2018-06-16T12:04:43.065Z,1004.98
2018-06-16T12:05:48.568Z,1004.99
2018-06-16T12:06:55.131Z,1005.01
2018-06-16T12:07:59.627Z,1004.99
2018-06-16T12:09:05.156Z,1005.01
2018-06-16T12:10:10.670Z,1004.96
2018-06-16T12:11:16.201Z,1004.96
2018-06-16T12:12:21.700Z,1004.98
2018-06-16T12:13:28.243Z,1004.98
2018-06-16T12:15:38.265Z,1004.96
2018-06-16T12:16:45.195Z,1004.96
2018-06-16T12:17:54.453Z,1005.03
2018-06-16T12:18:54.842Z,1005.02
2018-06-16T12:20:01.400Z,1004.98
2018-06-16T12:21:05.851Z,1004.97
2018-06-16T12:22:12.002Z,1005.00
2018-06-16T12:23:16.905Z,1004.95
2018-06-16T12:24:25.107Z,1004.91
2018-06-16T12:25:28.023Z,1004.94
2018-06-16T12:26:35.468Z,1004.89
2018-06-16T12:27:38.996Z,1004.91
2018-06-16T12:28:44.505Z,1004.86
2018-06-16T12:29:50.102Z,1004.80
2018-06-16T12:30:56.591Z,1004.81
2018-06-16T12:32:01.498Z,1004.76
2018-06-16T12:33:07.613Z,1004.71
2018-06-16T12:34:12.128Z,1004.72
2018-06-16T12:35:17.656Z,1004.70
2018-06-16T12:36:23.141Z,1004.70
2018-06-16T12:37:28.685Z,1004.70
2018-06-16T12:38:34.284Z,1004.68
2018-06-16T12:39:40.817Z,1004.67
2018-06-16T12:40:46.917Z,1004.69
2018-06-16T12:41:51.676Z,1004.69
2018-06-16T12:42:56.281Z,1004.72
2018-06-16T12:44:01.796Z,1004.71
2018-06-16T12:45:07.341Z,1004.66
2018-06-16T12:46:13.868Z,1004.63
2018-06-16T12:47:18.383Z,1004.66
2018-06-16T12:48:23.883Z,1004.67
2018-06-16T12:49:29.417Z,1004.62
2018-06-16T12:50:34.925Z,1004.58
2018-06-16T12:51:40.467Z,1004.56
2018-06-16T12:52:47.997Z,1004.55
2018-06-16T12:53:51.487Z,1004.54
2018-06-16T12:54:57.026Z,1004.52
2018-06-16T12:56:03.496Z,1004.53
2018-06-16T12:57:08.132Z,1004.52
2018-06-16T12:58:13.587Z,1004.53
2018-06-16T12:59:20.117Z,1004.52
2018-06-16T13:00:24.628Z,1004.55
2018-06-16T13:01:30.133Z,1004.51
2018-06-16T13:02:35.656Z,1004.49
2018-06-16T13:03:41.197Z,1004.44
2018-06-16T13:04:46.725Z,1004.48
2018-06-16T13:05:53.242Z,1004.47
2018-06-16T13:06:57.768Z,1004.49
2018-06-16T13:08:03.285Z,1004.44
2018-06-16T13:09:08.798Z,1004.43
2018-06-16T13:10:14.362Z,1004.38
2018-06-16T13:11:19.828Z,1004.45
2018-06-16T13:12:26.411Z,1004.44
2018-06-16T13:13:30.897Z,1004.47
2018-06-16T13:14:37.007Z,1004.42